• Join FlightAware (Why Join?)
  • Login
  • US Flag 
12:27AM EST


 

Airport Tracker/Info


-or-


 

Live Flight TrackerFlight Track Log ✈ UAL582 ✈ 07-May-2013 ✈ CYYZ - KORD

Flight Track Log - Related Links

Times and Time Zones

All times are in EDT time to prevent confusion due to time zone crossing. See the UAL582 flight status page for this flight to view local times or setup timezone preferences in your user account.

Time Position Orientation Groundspeed Altitude Reporting Facility
EDT Latitude Longitude Course Direction KTS MPH feet Rate Location/Type
05:07PM 43.6833 -79.5667 240° Southwest 160 184 2,000  Level Toronto Center
05:08PM 43.7333 -79.5000 44° Northeast 220 253 4,500 2,400 Climbing Toronto Center
05:09PM 43.7833 -79.5167 346° North 250 288 6,900 2,820 Climbing Toronto Center
05:10PM 43.7123 -80.1135 277° West  Level FlightAware Approximate
05:10PM 43.8500 -79.5833 324° Northwest 290 334 10,200  Level Toronto Center
05:11PM 43.7187 -80.2389 277° West  Level FlightAware Approximate
05:11PM 43.8667 -79.7000 281° West 340 391 11,800  Level Toronto Center
05:12PM 43.6678 -80.3583 240° Southwest  Level FlightAware Approximate
05:12PM 43.8500 -79.8333 260° West 360 414 14,700  Level Toronto Center
05:13PM 43.8167 -79.9833 253° West 380 437 17,300 2,400 Climbing Toronto Center
05:14PM 43.8000 -80.1167 260° West 390 449 19,500 2,160 Climbing Toronto Center
05:15PM 43.7833 -80.2833 262° West 400 460 21,700 1,980 Climbing Toronto Center
05:16PM 43.7500 -80.4333 253° West 420 483 23,500 1,800 Climbing Toronto Center
05:17PM 43.7333 -80.6000 262° West 430 495 25,300 1,680 Climbing Toronto Center
05:18PM 43.7000 -80.7667 255° West 440 506 26,900 1,500 Climbing Toronto Center
05:19PM 43.6500 -80.9167 245° Southwest 450 518 28,400 1,500 Climbing Toronto Center
05:20PM 43.6167 -81.1000 256° West 460 529 30,000 1,440 Climbing Toronto Center
05:21PM 43.5667 -81.2667 248° West 460 529 31,300 1,500 Climbing Toronto Center
05:22PM 43.5333 -81.4333 255° West 460 529 33,100 1,560 Climbing Toronto Center
05:23PM 43.5000 -81.5833 253° West 460 529 34,500 1,200 Climbing Toronto Center
05:24PM 43.4667 -81.7667 256° West 460 529 35,500 720 Climbing Toronto Center
05:25PM 43.4167 -81.9333 248° West 460 529 36,000 240 Climbing Toronto Center
05:26PM 43.3833 -82.1167 256° West 460 529 36,000  Level Toronto Center
05:26PM 43.3783 -82.1942 265° West 463 533 36,000  Level Cleveland Center
05:27PM 43.3500 -82.2667 242° Southwest 450 518 36,000  Level Toronto Center
05:28PM 43.3167 -82.4333 255° West 450 518 36,000  Level Toronto Center
05:29PM 43.2833 -82.5833 253° West 450 518 36,000  Level Toronto Center
05:29PM 43.2622 -82.6814 254° West 458 527 36,000  Level Cleveland Center
05:30PM 43.2217 -82.8425 251° West 458 527 36,000 -300 Level Cleveland Center
05:31PM 43.1767 -83.0031 249° West 458 527 35,500 -720 Descending Cleveland Center
05:32PM 43.1339 -83.1578 249° West 453 521 34,600 -780 Descending Cleveland Center
05:33PM 43.0886 -83.3122 248° West 447 514 34,000 -360 Descending Cleveland Center
05:34PM 43.0431 -83.4750 249° West 447 514 34,000  Level Cleveland Center
05:35PM 42.9992 -83.6350 249° West 447 514 34,000 -240 Level Cleveland Center
05:36PM 42.9614 -83.7947 252° West 447 514 33,600 -720 Descending Cleveland Center
05:37PM 42.9419 -83.9697 261° West 447 514 32,600 -840 Descending Cleveland Center
05:38PM 42.9283 -84.1478 264° West 468 539 32,000 -300 Descending Cleveland Center
05:39PM 42.9081 -84.3222 261° West 473 544 32,000  Level Cleveland Center
05:40PM 42.8925 -84.5019 263° West 471 542 32,000  Level Chicago Center
05:41PM 42.8750 -84.6783 262° West 470 541 32,000  Level Chicago Center
05:42PM 42.8564 -84.8550 262° West 471 542 32,000  Level Chicago Center
05:43PM 42.8378 -85.0300 262° West 469 540 32,000  Level Chicago Center
05:44PM 42.8144 -85.2406 261° West 468 539 32,000 -60 Level Chicago Center
05:45PM 42.7961 -85.4172 262° West 471 542 31,900 -960 Descending Chicago Center
05:46PM 42.7700 -85.5872 258° West 463 533 30,100 -1,980 Descending Chicago Center
05:47PM 42.7408 -85.7514 256° West 448 516 27,900 -2,100 Descending Chicago Center
05:48PM 42.7119 -85.9094 256° West 434 499 25,800 -2,520 Descending Chicago Center
05:49PM 42.6842 -86.0636 256° West 420 483 22,700 -2,640 Descending Chicago Center
05:51PM 42.6550 -86.2192 256° West 421 484 20,300 -1,320 Descending Chicago Center
05:52PM 42.6258 -86.3681 255° West 404 465 20,000 -180 Descending Chicago Center
05:53PM 42.5931 -86.5464 256° West 406 467 20,000 -780 Level Chicago Center
05:54PM 42.5686 -86.6822 256° West 402 463 18,500 -1,860 Descending Chicago Center
05:55PM 42.5319 -86.8308 252° West 389 448 16,200 -2,280 Descending Chicago Center
05:56PM 42.4964 -86.9617 250° West 375 432 13,900 -2,280 Descending Chicago Center
05:57PM 42.4606 -87.0869 249° West 359 413 11,600 -1,920 Descending Chicago Center
05:58PM 42.4267 -87.2131 250° West 357 411 10,000 -780 Descending Chicago Center
05:59PM 42.3856 -87.3625 250° West 353 406 10,000  Level Chicago Center
06:00PM 42.3558 -87.4725 250° West 354 407 10,000  Level Chicago Center
06:01PM 42.2847 -87.5919 231° Southwest 351 404 10,000 -60 Level Chicago Center
06:02PM 42.2147 -87.6675 219° Southwest 326 375 9,900 -840 Descending Chicago Center
06:03PM 42.1511 -87.7314 217° Southwest 291 335 8,300 -1,380 Descending Chicago Center
06:04PM 42.0953 -87.8025 223° Southwest 290 334 7,100 -1,020 Descending Chicago Center
06:04PM 42.1000 -87.8500 278° West 288 331 7,000 -120 Descending Chicago TRACON
06:05PM 42.1000 -87.9500 270° West 272 313 7,000 -180 Level Chicago TRACON
06:06PM 42.1000 -88.0500 270° West 233 268 6,700 -720 Descending Chicago TRACON
06:07PM 42.0833 -88.1333 255° West 225 259 5,600 -1,140 Descending Chicago TRACON
06:08PM 42.0611 -88.1658 227° Southwest 233 268 4,600 -900 Descending Chicago Center
06:09PM 42.0008 -88.1656 180° South 223 257 4,000 -480 Descending Chicago Center
06:10PM 41.9686 -88.1194 133° Southeast 190 219 3,700 -300 Descending Chicago Center